createdAt,value
2022-08-18T00:10:42.291Z,14
2022-08-18T00:39:34.172Z,14
2022-08-18T01:08:01.107Z,14
2022-08-18T01:36:44.276Z,13
2022-08-18T02:06:06.534Z,13
2022-08-18T02:34:37.181Z,13
2022-08-18T03:03:27.866Z,12
2022-08-18T03:32:18.396Z,14
2022-08-18T04:01:00.885Z,13
2022-08-18T04:29:44.696Z,14
2022-08-18T04:58:24.130Z,13
2022-08-18T05:27:09.862Z,12
2022-08-18T05:56:00.382Z,14
2022-08-18T06:24:32.001Z,13
2022-08-18T06:53:18.857Z,13
2022-08-18T07:21:43.664Z,12
2022-08-18T07:50:31.685Z,12
2022-08-18T08:18:50.837Z,12
2022-08-18T08:47:29.672Z,13
2022-08-18T09:16:14.079Z,14
2022-08-18T09:44:57.130Z,12
2022-08-18T10:13:26.022Z,13
2022-08-18T10:41:57.296Z,13
2022-08-18T11:10:32.128Z,13
2022-08-18T11:38:50.551Z,12
2022-08-18T12:07:26.082Z,12
2022-08-18T12:35:59.076Z,12
2022-08-18T13:04:31.434Z,11
2022-08-18T13:33:35.481Z,11
2022-08-18T14:01:42.666Z,10
2022-08-18T14:29:59.903Z,12
2022-08-18T14:58:35.868Z,12
2022-08-18T15:27:05.865Z,12
2022-08-18T15:55:32.964Z,12
2022-08-18T16:24:00.811Z,20
2022-08-18T16:52:35.286Z,26
2022-08-18T17:21:13.006Z,28
2022-08-18T17:49:49.248Z,32
2022-08-18T18:18:20.840Z,32
2022-08-18T18:47:08.364Z,29
2022-08-18T19:15:48.658Z,28
2022-08-18T19:44:28.125Z,26
2022-08-18T20:13:03.428Z,26
2022-08-18T20:41:50.344Z,24
2022-08-18T21:10:22.382Z,24
2022-08-18T21:39:06.330Z,24
2022-08-18T22:07:34.848Z,23
2022-08-18T22:36:03.724Z,23
2022-08-18T23:04:45.887Z,23
2022-08-18T23:33:34.047Z,22
